Time;durP1;ratioP1;P1;durP2;ratioP2;P2;SDS_P1;SDS_P2;PMS_P1;PMS_P2;Temp;Humidity;BMP_temperature;BMP_pressure;BME280_temperature;BME280_humidity;BME280_pressure;Samples;Min_cycle;Max_cycle;Signal;HPM_P1;HPM_P2
2021/03/21 00:01:43;;;;;;;1.02;1.02;;;3.20;99.90;;;;;;4985537;28;20538;-89
2021/03/21 00:04:13;;;;;;;0.30;0.30;;;3.20;99.90;;;;;;4984997;28;20583;-90
2021/03/21 00:06:39;;;;;;;0.25;0.25;;;3.20;99.90;;;;;;4989458;28;20037;-88
2021/03/21 00:09:06;;;;;;;0.13;0.13;;;3.30;99.90;;;;;;4981283;28;20031;-89
2021/03/21 00:11:35;;;;;;;0.20;0.20;;;3.20;99.90;;;;;;4984212;28;20289;-87
2021/03/21 00:14:03;;;;;;;0.45;0.45;;;3.30;99.90;;;;;;4965014;28;20511;-86
2021/03/21 00:16:31;;;;;;;0.45;0.45;;;3.30;99.90;;;;;;4981306;28;20062;-87
2021/03/21 00:18:57;;;;;;;0.30;0.30;;;3.30;99.90;;;;;;4981700;28;20042;-85
2021/03/21 00:21:23;;;;;;;0.20;0.20;;;3.30;99.90;;;;;;4987830;28;20023;-86
2021/03/21 00:23:49;;;;;;;0.27;0.27;;;3.40;99.90;;;;;;4985361;28;20824;-86
2021/03/21 00:26:15;;;;;;;0.30;0.30;;;3.40;99.90;;;;;;4986710;28;20030;-86
2021/03/21 00:28:41;;;;;;;0.38;0.38;;;3.40;99.90;;;;;;4987753;28;20066;-87
2021/03/21 00:31:09;;;;;;;0.57;0.57;;;3.40;99.90;;;;;;4987760;28;20019;-86
2021/03/21 00:33:37;;;;;;;0.55;0.55;;;3.50;99.90;;;;;;4986921;28;20031;-86
2021/03/21 00:36:05;;;;;;;0.35;0.35;;;3.50;99.90;;;;;;4987362;28;20384;-85
2021/03/21 00:38:34;;;;;;;0.20;0.20;;;3.40;99.90;;;;;;4984059;28;20038;-85
2021/03/21 00:41:01;;;;;;;0.80;0.75;;;3.40;99.90;;;;;;4994005;28;20229;-87
2021/03/21 00:43:27;;;;;;;0.20;0.20;;;3.40;99.90;;;;;;4976934;28;20033;-90
2021/03/21 00:45:54;;;;;;;0.75;0.55;;;3.40;99.90;;;;;;4983107;28;20030;-87
2021/03/21 00:48:29;;;;;;;0.30;0.30;;;3.40;99.90;;;;;;4985133;28;20037;-87
2021/03/21 00:50:56;;;;;;;0.38;0.38;;;3.40;99.90;;;;;;4996406;28;20035;-87
2021/03/21 00:53:23;;;;;;;0.15;0.15;;;3.20;99.90;;;;;;4989653;28;20152;-88
2021/03/21 00:55:48;;;;;;;0.57;0.57;;;3.30;99.90;;;;;;4989493;28;20045;-87
2021/03/21 00:58:15;;;;;;;0.38;0.38;;;3.20;99.90;;;;;;4986566;28;20031;-87
2021/03/21 01:00:44;;;;;;;0.35;0.35;;;3.20;99.90;;;;;;4980037;28;20079;-89
2021/03/21 01:03:10;;;;;;;1.00;0.70;;;3.10;99.90;;;;;;4982499;28;20057;-90
2021/03/21 01:05:41;;;;;;;2.90;1.13;;;3.10;99.90;;;;;;4975388;28;20026;-87
2021/03/21 01:08:35;;;;;;;0.30;0.30;;;3.00;99.90;;;;;;4999240;28;20030;-88
2021/03/21 01:11:08;;;;;;;0.38;0.38;;;2.80;99.90;;;;;;4986369;28;20038;-87
2021/03/21 01:13:35;;;;;;;0.30;0.30;;;2.80;99.90;;;;;;4989125;28;20522;-86
2021/03/21 01:16:03;;;;;;;0.25;0.25;;;2.80;99.90;;;;;;4986234;28;20407;-85
2021/03/21 01:18:32;;;;;;;0.65;0.65;;;2.80;99.90;;;;;;4989323;28;20035;-85
2021/03/21 01:20:58;;;;;;;0.40;0.40;;;2.70;99.90;;;;;;5000117;28;20085;-85
2021/03/21 01:23:25;;;;;;;0.75;0.75;;;2.70;99.90;;;;;;4984165;28;20037;-86
2021/03/21 01:25:51;;;;;;;0.73;0.73;;;2.60;99.90;;;;;;4985725;28;20072;-86
2021/03/21 01:28:30;;;;;;;0.40;0.40;;;2.60;99.90;;;;;;4987173;28;20034;-86
2021/03/21 01:30:58;;;;;;;1.10;1.08;;;2.40;99.90;;;;;;4985874;28;20638;-85
2021/03/21 01:33:28;;;;;;;0.10;0.10;;;2.40;99.90;;;;;;4988498;28;20138;-85
2021/03/21 01:35:54;;;;;;;0.50;0.50;;;2.30;99.90;;;;;;4985696;28;20022;-85
2021/03/21 01:38:21;;;;;;;0.57;0.57;;;2.30;99.90;;;;;;5001110;28;20026;-84
2021/03/21 01:40:50;;;;;;;1.67;0.95;;;2.20;99.90;;;;;;4983295;28;20027;-84
2021/03/21 01:43:18;;;;;;;0.17;0.17;;;2.30;99.90;;;;;;4986390;28;20018;-85
2021/03/21 01:45:46;;;;;;;0.20;0.20;;;2.40;99.90;;;;;;4985751;28;20029;-85
2021/03/21 01:48:15;;;;;;;0.57;0.57;;;2.60;99.90;;;;;;4987597;28;20031;-84
2021/03/21 01:50:57;;;;;;;0.38;0.38;;;2.60;99.90;;;;;;4987808;28;20041;-84
2021/03/21 01:53:26;;;;;;;0.85;0.85;;;2.60;99.90;;;;;;4986581;28;20087;-84
2021/03/21 01:55:53;;;;;;;0.47;0.47;;;2.50;99.90;;;;;;4995731;28;20827;-85
2021/03/21 01:58:21;;;;;;;;;;;2.40;99.90;;;;;;4994313;28;20117;-84
2021/03/21 02:00:47;;;;;;;0.30;0.30;;;2.50;99.90;;;;;;4991615;28;19921;-84
2021/03/21 02:03:14;;;;;;;0.20;0.20;;;2.50;99.90;;;;;;4985262;28;20033;-85
2021/03/21 02:05:41;;;;;;;38.40;1.45;;;2.50;99.90;;;;;;4998694;28;20517;-85
2021/03/21 02:08:46;;;;;;;0.60;0.60;;;2.40;99.90;;;;;;4988135;28;20031;-85
2021/03/21 02:11:28;;;;;;;1.13;0.98;;;2.60;99.90;;;;;;4985955;28;20035;-85
2021/03/21 02:14:15;;;;;;;0.60;0.60;;;2.70;99.90;;;;;;4990656;28;20874;-85
2021/03/21 02:16:49;;;;;;;1.02;1.02;;;2.70;99.90;;;;;;4986771;28;20089;-85
2021/03/21 02:19:33;;;;;;;0.15;0.15;;;2.90;99.90;;;;;;4988560;28;20089;-85
2021/03/21 02:22:01;;;;;;;0.30;0.30;;;2.60;99.90;;;;;;5001630;28;20103;-85
2021/03/21 02:25:06;;;;;;;0.40;0.40;;;2.60;99.90;;;;;;4990079;28;20034;-85
2021/03/21 02:27:43;;;;;;;1.67;1.55;;;2.60;99.90;;;;;;5004822;28;20022;-85
2021/03/21 02:30:30;;;;;;;0.20;0.20;;;2.60;99.90;;;;;;4999102;28;20041;-85
2021/03/21 02:33:09;;;;;;;0.65;0.65;;;2.50;99.90;;;;;;5009718;28;20038;-85
2021/03/21 02:36:07;;;;;;;0.22;0.22;;;2.60;99.90;;;;;;4990983;28;20525;-84
2021/03/21 02:38:43;;;;;;;0.60;0.60;;;2.60;99.90;;;;;;4966217;28;20039;-84
2021/03/21 02:41:17;;;;;;;0.60;0.60;;;2.50;99.90;;;;;;4969055;28;20089;-85
2021/03/21 02:43:51;;;;;;;0.70;0.70;;;2.50;99.90;;;;;;4965092;28;20059;-85
2021/03/21 02:46:28;;;;;;;0.10;0.10;;;2.70;99.90;;;;;;4960668;28;20110;-85
2021/03/21 02:48:59;;;;;;;;;;;3.00;99.90;;;;;;4970265;28;20522;-84
2021/03/21 02:51:33;;;;;;;0.32;0.32;;;2.90;99.90;;;;;;4960170;28;19906;-85
2021/03/21 02:54:06;;;;;;;4.20;1.02;;;2.80;99.90;;;;;;4943825;28;20480;-85
2021/03/21 02:56:32;;;;;;;2.63;1.45;;;2.80;99.90;;;;;;4969259;28;20066;-85
2021/03/21 02:59:22;;;;;;;0.20;0.20;;;2.80;99.90;;;;;;4938724;28;20105;-85
2021/03/21 03:02:02;;;;;;;2.28;2.08;;;2.90;99.90;;;;;;4966352;28;20046;-85
2021/03/21 03:04:39;;;;;;;0.40;0.40;;;2.70;99.90;;;;;;4963816;28;20019;-85
2021/03/21 03:07:41;;;;;;;3.20;0.65;;;2.50;99.90;;;;;;4956109;28;20082;-85
2021/03/21 03:10:16;;;;;;;0.40;0.40;;;2.30;99.90;;;;;;4952235;28;20045;-84
2021/03/21 03:12:48;;;;;;;0.57;0.55;;;2.50;99.90;;;;;;4933954;29;20031;-84
2021/03/21 03:15:16;;;;;;;0.55;0.55;;;2.30;99.90;;;;;;4960480;28;20039;-85
2021/03/21 03:17:59;;;;;;;0.38;0.38;;;2.20;99.90;;;;;;4974711;28;20210;-85
2021/03/21 03:20:49;;;;;;;0.80;0.40;;;2.40;99.90;;;;;;4989445;28;20054;-85
2021/03/21 03:23:56;;;;;;;0.30;0.30;;;2.30;99.90;;;;;;4990840;28;20105;-86
2021/03/21 03:26:33;;;;;;;0.20;0.20;;;2.30;99.90;;;;;;4987131;28;20026;-85
2021/03/21 03:29:07;;;;;;;0.50;0.50;;;2.40;99.90;;;;;;4986060;28;20034;-85
2021/03/21 03:31:43;;;;;;;0.75;0.70;;;2.40;99.90;;;;;;4990877;28;20041;-86
2021/03/21 03:34:09;;;;;;;0.32;0.32;;;2.40;99.90;;;;;;4991055;28;20026;-86
2021/03/21 03:36:35;;;;;;;0.20;0.20;;;2.20;99.90;;;;;;4988677;28;20466;-85
2021/03/21 03:39:02;;;;;;;0.57;0.57;;;2.60;99.90;;;;;;4989639;28;20031;-86
2021/03/21 03:41:37;;;;;;;0.40;0.40;;;2.40;99.90;;;;;;4989097;28;20383;-85
2021/03/21 03:44:14;;;;;;;0.73;0.73;;;2.20;99.90;;;;;;4983526;28;20030;-85
2021/03/21 03:46:54;;;;;;;0.20;0.20;;;2.50;99.90;;;;;;5003623;28;20104;-85
2021/03/21 03:49:28;;;;;;;0.40;0.40;;;2.70;99.90;;;;;;5003973;28;20390;-85
2021/03/21 03:52:00;;;;;;;0.63;0.63;;;2.50;99.90;;;;;;4990027;28;20692;-85
2021/03/21 03:54:33;;;;;;;0.45;0.45;;;2.40;99.90;;;;;;4987220;28;20027;-85
2021/03/21 03:57:31;;;;;;;0.40;0.40;;;2.10;99.90;;;;;;4989805;28;20030;-84
2021/03/21 04:00:06;;;;;;;0.60;0.50;;;2.20;99.90;;;;;;4986883;28;20039;-84
2021/03/21 04:03:15;;;;;;;0.60;0.60;;;2.00;99.90;;;;;;4992505;28;20062;-85
2021/03/21 04:05:47;;;;;;;0.68;0.68;;;2.40;99.90;;;;;;4971918;28;20400;-85
2021/03/21 04:08:39;;;;;;;0.70;0.70;;;2.30;99.90;;;;;;4999564;28;20490;-85
2021/03/21 04:11:16;;;;;;;0.85;0.85;;;2.40;99.90;;;;;;4990350;28;20030;-84
2021/03/21 04:13:47;;;;;;;0.73;0.73;;;2.40;99.90;;;;;;4993858;28;20029;-85
2021/03/21 04:16:25;;;;;;;6.13;1.30;;;2.10;99.90;;;;;;4986568;28;20051;-86
2021/03/21 04:18:54;;;;;;;0.20;0.20;;;2.10;99.90;;;;;;4992430;28;20552;-86
2021/03/21 04:21:53;;;;;;;0.55;0.55;;;2.20;99.90;;;;;;4999429;28;20023;-86
2021/03/21 04:24:33;;;;;;;0.80;0.80;;;2.30;99.90;;;;;;4982919;28;20450;-86
2021/03/21 04:27:04;;;;;;;0.25;0.25;;;2.10;99.90;;;;;;4991586;28;20077;-85
2021/03/21 04:29:34;;;;;;;0.40;0.40;;;2.30;99.90;;;;;;5008777;28;20033;-86
2021/03/21 04:32:05;;;;;;;0.47;0.47;;;2.20;99.90;;;;;;4993594;28;20097;-86
2021/03/21 04:34:34;;;;;;;0.20;0.20;;;2.20;99.90;;;;;;4997422;28;20034;-86
2021/03/21 04:37:02;;;;;;;1.75;0.70;;;1.90;99.90;;;;;;4989490;28;20058;-86
2021/03/21 04:39:33;;;;;;;0.47;0.47;;;2.20;99.90;;;;;;4979985;28;20033;-86
2021/03/21 04:42:06;;;;;;;0.30;0.30;;;2.30;99.90;;;;;;4978131;28;20038;-86
2021/03/21 04:44:38;;;;;;;0.52;0.38;;;2.10;99.90;;;;;;5002700;28;20026;-86
2021/03/21 04:47:07;;;;;;;0.25;0.25;;;1.90;99.90;;;;;;4988449;28;20475;-86
2021/03/21 04:49:33;;;;;;;0.90;0.90;;;2.30;99.90;;;;;;4983752;28;20033;-87
2021/03/21 04:52:22;;;;;;;4.70;2.20;;;2.30;99.90;;;;;;4980738;28;20446;-86
2021/03/21 04:54:51;;;;;;;0.80;0.63;;;2.20;99.90;;;;;;4992306;28;20038;-86
2021/03/21 04:57:29;;;;;;;0.47;0.47;;;2.10;99.90;;;;;;4988130;28;20030;-86
2021/03/21 04:59:55;;;;;;;1.15;1.05;;;2.00;99.90;;;;;;4993306;28;20044;-87
2021/03/21 05:02:23;;;;;;;0.77;0.77;;;2.10;99.90;;;;;;4990087;28;20038;-87
2021/03/21 05:04:58;;;;;;;0.47;0.47;;;1.80;99.90;;;;;;4989295;28;20081;-86
2021/03/21 05:07:37;;;;;;;1.13;1.13;;;1.60;99.90;;;;;;4988502;28;20146;-87
2021/03/21 05:10:21;;;;;;;1.17;1.17;;;1.80;99.90;;;;;;4993529;28;20034;-86
2021/03/21 05:12:55;;;;;;;0.10;0.10;;;1.50;99.90;;;;;;4982303;28;20030;-86
2021/03/21 05:15:43;;;;;;;1.05;1.05;;;1.40;99.90;;;;;;4975885;28;20034;-86
2021/03/21 05:18:40;;;;;;;0.32;0.32;;;1.70;99.90;;;;;;4987976;28;20038;-86
2021/03/21 05:21:18;;;;;;;0.47;0.47;;;1.60;99.90;;;;;;4968794;28;20039;-87
2021/03/21 05:23:55;;;;;;;0.43;0.40;;;1.90;99.90;;;;;;4998650;28;20050;-86
2021/03/21 05:26:20;;;;;;;;;;;1.90;99.90;;;;;;4990235;28;20096;-86
2021/03/21 05:28:50;;;;;;;0.37;0.37;;;1.90;99.90;;;;;;4988246;28;19917;-86
2021/03/21 05:31:17;;;;;;;0.47;0.47;;;1.90;99.90;;;;;;4990323;28;20550;-86
2021/03/21 05:33:45;;;;;;;1.38;1.35;;;2.10;99.90;;;;;;5000940;28;20023;-85
2021/03/21 05:36:46;;;;;;;0.75;0.75;;;1.80;99.90;;;;;;4988441;28;20073;-86
2021/03/21 05:39:29;;;;;;;0.10;0.10;;;2.00;99.90;;;;;;4961371;28;20139;-86
2021/03/21 05:42:19;;;;;;;0.50;0.50;;;1.70;99.90;;;;;;4979159;28;20042;-86
2021/03/21 05:45:21;;;;;;;0.50;0.50;;;1.80;99.90;;;;;;4954703;28;20071;-86
2021/03/21 05:48:02;;;;;;;1.05;1.05;;;2.00;99.90;;;;;;4947744;28;20027;-86
2021/03/21 05:50:59;;;;;;;0.50;0.50;;;2.30;99.90;;;;;;4970548;28;20038;-86
2021/03/21 05:53:40;;;;;;;0.28;0.28;;;2.40;99.90;;;;;;4971523;28;20035;-86
2021/03/21 05:56:15;;;;;;;0.68;0.68;;;2.50;99.90;;;;;;4971880;28;20820;-86
2021/03/21 05:59:10;;;;;;;0.65;0.63;;;2.40;99.90;;;;;;4958332;28;20151;-87
2021/03/21 06:02:15;;;;;;;0.47;0.47;;;2.40;99.90;;;;;;4971588;28;20054;-86
2021/03/21 06:04:55;;;;;;;1.85;1.75;;;2.50;99.90;;;;;;4962592;28;20086;-86
2021/03/21 06:07:35;;;;;;;4.72;0.90;;;2.50;99.90;;;;;;4970948;28;20034;-86
2021/03/21 06:10:41;;;;;;;2.13;1.42;;;2.70;99.90;;;;;;4988621;28;20080;-86
2021/03/21 06:13:44;;;;;;;0.63;0.63;;;3.40;99.90;;;;;;4961403;28;20087;-86
2021/03/21 06:17:00;;;;;;;0.45;0.45;;;3.60;99.90;;;;;;4976515;28;20781;-86
2021/03/21 06:19:50;;;;;;;1.35;1.25;;;4.00;99.90;;;;;;4990842;28;20034;-85
2021/03/21 06:22:41;;;;;;;2.67;1.23;;;4.40;99.90;;;;;;4990689;28;20088;-86
2021/03/21 06:25:36;;;;;;;0.50;0.50;;;4.20;99.90;;;;;;4991813;28;20030;-86
2021/03/21 06:28:42;;;;;;;1.30;0.90;;;4.10;99.90;;;;;;4983612;28;20026;-86
2021/03/21 06:31:49;;;;;;;0.40;0.40;;;4.90;99.90;;;;;;4988501;28;20034;-87
2021/03/21 06:34:39;;;;;;;1.40;1.33;;;5.30;99.90;;;;;;4946079;29;20518;-86
2021/03/21 06:37:23;;;;;;;0.73;0.73;;;4.10;99.90;;;;;;4931407;29;20518;-88
2021/03/21 06:40:20;;;;;;;0.20;0.20;;;3.70;99.90;;;;;;4943200;29;20891;-87
2021/03/21 06:43:19;;;;;;;1.02;1.02;;;3.70;99.90;;;;;;4948257;29;20106;-88
2021/03/21 06:46:03;;;;;;;0.45;0.45;;;3.70;99.90;;;;;;4934264;29;20055;-88
2021/03/21 06:48:54;;;;;;;0.45;0.45;;;4.30;99.90;;;;;;4947610;29;20032;-88
2021/03/21 06:51:49;;;;;;;0.68;0.63;;;4.80;99.90;;;;;;4947513;29;20065;-87
2021/03/21 06:54:35;;;;;;;0.28;0.28;;;4.80;99.90;;;;;;4942324;29;20028;-88
2021/03/21 06:57:41;;;;;;;1.10;1.10;;;5.60;99.90;;;;;;4931026;29;20032;-88
2021/03/21 07:00:48;;;;;;;0.38;0.38;;;5.60;99.90;;;;;;4946145;29;20027;-87
2021/03/21 07:03:41;;;;;;;0.63;0.63;;;5.90;99.90;;;;;;4943864;29;20027;-87
2021/03/21 07:06:45;;;;;;;0.63;0.63;;;6.20;99.90;;;;;;4930866;29;20035;-85
2021/03/21 07:09:38;;;;;;;0.80;0.80;;;6.90;99.90;;;;;;4938172;28;20036;-87
2021/03/21 07:12:22;;;;;;;1.33;1.23;;;7.30;99.90;;;;;;4983290;28;20113;-85
2021/03/21 07:15:25;;;;;;;0.25;0.25;;;7.90;99.90;;;;;;4988279;28;20557;-85
2021/03/21 07:17:54;;;;;;;0.90;0.90;;;8.00;99.90;;;;;;4981543;28;20769;-88
2021/03/21 07:20:25;;;;;;;0.82;0.75;;;9.00;99.90;;;;;;4989885;28;20026;-87
2021/03/21 07:23:28;;;;;;;0.88;0.88;;;8.70;99.90;;;;;;4996085;28;20026;-88
2021/03/21 07:26:18;;;;;;;5.50;1.00;;;8.90;99.90;;;;;;4995762;28;20088;-85
2021/03/21 07:28:53;;;;;;;0.38;0.38;;;9.20;99.90;;;;;;4987083;28;20120;-85
2021/03/21 07:31:50;;;;;;;1.40;1.15;;;8.70;99.90;;;;;;4990021;28;20026;-87
2021/03/21 07:34:47;;;;;;;0.77;0.77;;;8.00;99.90;;;;;;4985986;28;20105;-84
2021/03/21 07:37:40;;;;;;;0.38;0.35;;;9.30;99.90;;;;;;4987267;28;20081;-85
2021/03/21 07:40:22;;;;;;;0.52;0.52;;;9.70;99.90;;;;;;4984305;28;20502;-85
2021/03/21 07:43:19;;;;;;;0.52;0.52;;;9.60;99.90;;;;;;4988994;28;20062;-84
2021/03/21 07:46:04;;;;;;;1.45;1.27;;;12.40;99.90;;;;;;4995327;28;20022;-85
2021/03/21 07:48:51;;;;;;;0.73;0.73;;;9.80;99.90;;;;;;4983528;28;20105;-87
2021/03/21 07:51:58;;;;;;;0.63;0.63;;;9.30;99.90;;;;;;4985727;28;20026;-87
2021/03/21 07:54:49;;;;;;;0.40;0.40;;;8.60;99.90;;;;;;4965772;28;20045;-86
2021/03/21 07:57:22;;;;;;;0.45;0.45;;;8.10;99.90;;;;;;4981972;28;20027;-84
2021/03/21 07:59:50;;;;;;;1.15;1.08;;;8.60;99.90;;;;;;4985813;28;20090;-87
2021/03/21 08:02:25;;;;;;;0.70;0.70;;;7.80;99.90;;;;;;4989910;28;20038;-87
2021/03/21 08:04:54;;;;;;;0.30;0.30;;;8.00;99.90;;;;;;4995762;28;20024;-87
2021/03/21 08:07:33;;;;;;;3.22;1.10;;;8.50;99.90;;;;;;4987859;28;20045;-88
2021/03/21 08:10:00;;;;;;;1.40;1.25;;;7.60;99.90;;;;;;4989308;28;20069;-87
2021/03/21 08:12:37;;;;;;;;;;;7.40;99.90;;;;;;4988846;28;20061;-87
2021/03/21 08:15:22;;;;;;;0.45;0.45;;;7.10;99.90;;;;;;4988371;28;20580;-88
2021/03/21 08:17:58;;;;;;;2.58;1.63;;;7.90;99.90;;;;;;4984305;28;20073;-89
2021/03/21 08:20:32;;;;;;;1.20;1.00;;;7.60;99.90;;;;;;4986883;28;20018;-89
2021/03/21 08:23:13;;;;;;;0.50;0.50;;;7.70;99.90;;;;;;4985461;28;20029;-90
2021/03/21 08:25:39;;;;;;;0.25;0.25;;;9.10;99.90;;;;;;4985542;28;20030;-87
2021/03/21 08:28:05;;;;;;;2.42;1.95;;;9.50;99.90;;;;;;4988268;28;20113;-88
2021/03/21 08:30:53;;;;;;;1.75;1.55;;;10.20;99.90;;;;;;4991048;28;20550;-87
2021/03/21 08:33:43;;;;;;;1.23;0.73;;;9.50;99.90;;;;;;4996417;28;20042;-87
2021/03/21 08:36:19;;;;;;;1.60;1.50;;;8.30;99.90;;;;;;4990580;28;20069;-87
2021/03/21 08:39:17;;;;;;;2.25;1.65;;;7.50;99.90;;;;;;5001574;28;20045;-88
2021/03/21 08:41:58;;;;;;;1.85;1.00;;;8.30;99.90;;;;;;4984276;28;20727;-87
2021/03/21 08:44:32;;;;;;;0.88;0.88;;;8.30;99.90;;;;;;4985709;28;20030;-87
2021/03/21 08:46:59;;;;;;;0.50;0.50;;;9.00;99.90;;;;;;4989087;28;20026;-87
2021/03/21 08:49:31;;;;;;;0.88;0.88;;;9.60;99.90;;;;;;4986741;28;20042;-87
2021/03/21 08:51:58;;;;;;;0.65;0.65;;;10.40;99.90;;;;;;4987904;28;20097;-90
2021/03/21 08:54:27;;;;;;;2.70;0.77;;;12.10;99.90;;;;;;4991247;28;20652;-88
2021/03/21 08:56:59;;;;;;;0.57;0.57;;;13.20;99.90;;;;;;4989619;28;20080;-89
2021/03/21 08:59:31;;;;;;;0.57;0.57;;;13.90;99.90;;;;;;4989333;28;20116;-87
2021/03/21 09:02:14;;;;;;;0.60;0.60;;;12.40;99.90;;;;;;4984738;28;20019;-86
2021/03/21 09:05:07;;;;;;;0.60;0.60;;;13.30;99.90;;;;;;4990776;28;20026;-87
2021/03/21 09:07:37;;;;;;;0.85;0.80;;;15.20;99.90;;;;;;4986310;28;20109;-87
2021/03/21 09:10:11;;;;;;;0.43;0.43;;;16.20;99.90;;;;;;4979513;28;20562;-86
2021/03/21 09:12:43;;;;;;;0.98;0.90;;;16.00;99.90;;;;;;4981303;28;20042;-87
2021/03/21 09:15:31;;;;;;;0.75;0.75;;;16.00;99.90;;;;;;4987513;28;20795;-86
2021/03/21 09:18:12;;;;;;;0.65;0.65;;;15.50;99.90;;;;;;4983472;28;20061;-88
2021/03/21 09:20:41;;;;;;;1.08;1.08;;;13.60;99.90;;;;;;4985955;28;20038;-90
2021/03/21 09:23:38;;;;;;;0.80;0.68;;;15.90;99.90;;;;;;4984258;28;20449;-88
2021/03/21 09:26:22;;;;;;;1.08;1.08;;;16.90;99.90;;;;;;4984833;28;20034;-90
2021/03/21 09:28:55;;;;;;;0.38;0.38;;;17.60;99.90;;;;;;4983074;28;20081;-88
2021/03/21 09:31:24;;;;;;;1.02;0.93;;;14.60;99.90;;;;;;4997431;28;20057;-86
2021/03/21 09:33:55;;;;;;;1.13;1.10;;;16.90;99.90;;;;;;4994425;28;20709;-87
2021/03/21 09:36:43;;;;;;;1.08;1.02;;;16.20;99.90;;;;;;4989334;28;20041;-87
2021/03/21 09:39:24;;;;;;;0.70;0.70;;;18.00;99.90;;;;;;4992337;28;20533;-87
2021/03/21 09:41:53;;;;;;;4.43;2.05;;;16.30;99.90;;;;;;4987397;28;20031;-87
2021/03/21 09:44:32;;;;;;;0.68;0.68;;;17.00;99.90;;;;;;4993650;28;20153;-87
2021/03/21 09:47:12;;;;;;;0.10;0.10;;;17.50;99.90;;;;;;4993005;28;20088;-87
2021/03/21 09:49:50;;;;;;;0.63;0.63;;;18.20;99.90;;;;;;4983319;28;20133;-87
2021/03/21 09:52:25;;;;;;;0.40;0.40;;;21.40;99.90;;;;;;4991617;28;20044;-87
2021/03/21 09:55:00;;;;;;;0.63;0.63;;;19.40;99.90;;;;;;4987560;28;20042;-89
2021/03/21 09:57:40;;;;;;;0.22;0.22;;;18.50;99.90;;;;;;4981278;28;20431;-85
2021/03/21 10:00:16;;;;;;;2.92;0.65;;;17.90;99.90;;;;;;4989844;28;20026;-86
2021/03/21 10:03:00;;;;;;;0.55;0.55;;;17.40;99.90;;;;;;4974266;28;20415;-86
2021/03/21 10:05:29;;;;;;;1.83;1.13;;;17.70;99.90;;;;;;4990729;28;20022;-88
2021/03/21 10:08:27;;;;;;;1.00;0.80;;;18.60;99.90;;;;;;4991383;28;20041;-87
2021/03/21 10:10:59;;;;;;;1.42;1.33;;;17.50;99.90;;;;;;4998147;28;20034;-87
2021/03/21 10:13:41;;;;;;;0.80;0.80;;;18.10;99.90;;;;;;4990617;28;20033;-86
2021/03/21 10:16:15;;;;;;;1.55;1.45;;;17.50;99.90;;;;;;4987443;28;20477;-85
2021/03/21 10:18:44;;;;;;;1.33;0.93;;;16.10;99.90;;;;;;4986747;28;20069;-86
2021/03/21 10:21:27;;;;;;;0.85;0.85;;;16.00;99.90;;;;;;4983669;28;20034;-86
2021/03/21 10:24:01;;;;;;;0.75;0.75;;;19.30;99.90;;;;;;4982905;28;20039;-88
2021/03/21 10:26:31;;;;;;;1.75;1.50;;;19.90;99.90;;;;;;4983357;28;20112;-90
2021/03/21 10:29:21;;;;;;;0.52;0.52;;;20.00;99.90;;;;;;4980264;28;20401;-87
2021/03/21 10:31:48;;;;;;;0.10;0.10;;;19.50;99.90;;;;;;4978225;28;20027;-88
2021/03/21 10:34:13;;;;;;;0.13;0.13;;;22.60;99.90;;;;;;4978966;28;20027;-89
2021/03/21 10:36:40;;;;;;;0.40;0.40;;;20.60;99.90;;;;;;4977150;28;20060;-90
2021/03/21 10:39:07;;;;;;;0.30;0.30;;;19.70;99.90;;;;;;4973178;28;20079;-91
2021/03/21 10:42:09;;;;;;;0.28;0.28;;;20.30;99.90;;;;;;4981466;28;21704;-90
2021/03/21 10:44:36;;;;;;;0.22;0.22;;;19.30;99.90;;;;;;4984409;28;20019;-89
2021/03/21 10:47:10;;;;;;;0.75;0.75;;;18.90;99.90;;;;;;4982909;28;20033;-89
2021/03/21 10:49:48;;;;;;;0.40;0.40;;;17.00;99.90;;;;;;4983495;28;20105;-89
2021/03/21 10:52:35;;;;;;;0.30;0.30;;;17.70;99.90;;;;;;4987217;28;20026;-90
2021/03/21 10:55:14;;;;;;;0.57;0.57;;;20.20;99.90;;;;;;4986776;28;20411;-89
2021/03/21 10:57:47;;;;;;;0.60;0.60;;;16.50;99.90;;;;;;4986314;28;20093;-89
2021/03/21 11:00:20;;;;;;;2.47;0.80;;;17.10;99.90;;;;;;4988954;28;20375;-90
2021/03/21 11:03:01;;;;;;;0.15;0.15;;;19.40;99.90;;;;;;4990878;28;20133;-89
2021/03/21 11:05:43;;;;;;;8.10;1.88;;;19.50;99.90;;;;;;4977743;28;20018;-90
2021/03/21 11:08:12;;;;;;;0.90;0.75;;;19.60;99.90;;;;;;4984150;28;20058;-90
2021/03/21 11:10:50;;;;;;;0.57;0.40;;;19.70;99.90;;;;;;4987122;28;20069;-89
2021/03/21 11:13:36;;;;;;;0.75;0.75;;;17.60;99.90;;;;;;4985301;28;20045;-91
2021/03/21 11:16:13;;;;;;;1.17;0.57;;;17.60;99.90;;;;;;4981354;28;20132;-89
2021/03/21 11:18:40;;;;;;;0.55;0.28;;;17.10;99.90;;;;;;4985003;28;20034;-89
2021/03/21 11:21:15;;;;;;;0.40;0.40;;;17.20;99.90;;;;;;4986624;28;20030;-89
2021/03/21 11:23:55;;;;;;;0.85;0.85;;;18.20;99.90;;;;;;4990738;28;20022;-87
2021/03/21 11:26:33;;;;;;;0.30;0.30;;;18.00;99.90;;;;;;4985091;28;20483;-86
2021/03/21 11:29:05;;;;;;;0.30;0.30;;;18.60;99.90;;;;;;4989645;28;20018;-87
2021/03/21 11:31:41;;;;;;;2.63;0.88;;;18.40;99.90;;;;;;4986744;28;20034;-86
2021/03/21 11:34:19;;;;;;;0.57;0.20;;;18.30;99.90;;;;;;4981521;28;20390;-86
2021/03/21 11:36:46;;;;;;;0.30;0.30;;;18.40;99.90;;;;;;4989066;28;20411;-86
2021/03/21 11:39:27;;;;;;;0.08;0.08;;;18.90;99.90;;;;;;4983893;28;20113;-87
2021/03/21 11:41:53;;;;;;;0.10;0.10;;;19.80;99.90;;;;;;4997479;28;20026;-90
2021/03/21 11:44:25;;;;;;;0.50;0.50;;;18.00;99.90;;;;;;4984365;28;20034;-87
2021/03/21 11:46:53;;;;;;;0.47;0.47;;;14.50;99.90;;;;;;4990803;28;20524;-88
2021/03/21 11:49:22;;;;;;;0.60;0.43;;;13.40;99.90;;;;;;4992876;28;20027;-87
2021/03/21 11:52:02;;;;;;;0.32;0.32;;;13.00;99.90;;;;;;4988029;28;20028;-87
2021/03/21 11:54:30;;;;;;;0.10;0.10;;;13.10;99.90;;;;;;4993925;28;20082;-88
2021/03/21 11:57:11;;;;;;;0.90;0.68;;;12.90;99.90;;;;;;4985243;28;20031;-89
2021/03/21 11:59:53;;;;;;;0.40;0.40;;;13.60;99.90;;;;;;4985623;28;20129;-91
2021/03/21 12:02:34;;;;;;;0.13;0.13;;;13.50;99.90;;;;;;4989279;28;20026;-92
2021/03/21 12:05:03;;;;;;;0.35;0.35;;;12.80;99.90;;;;;;4985849;28;20101;-90
2021/03/21 12:07:32;;;;;;;0.98;0.55;;;13.10;99.90;;;;;;4987759;28;20062;-89
2021/03/21 12:09:59;;;;;;;0.45;0.45;;;13.40;99.90;;;;;;4987671;28;20390;-90
2021/03/21 12:12:37;;;;;;;0.20;0.20;;;13.00;99.90;;;;;;4990075;28;20784;-89
2021/03/21 12:15:33;;;;;;;0.85;0.63;;;13.20;99.90;;;;;;4989641;28;20038;-90
2021/03/21 12:18:21;;;;;;;0.55;0.32;;;13.30;99.90;;;;;;4992633;28;20044;-89
2021/03/21 12:20:50;;;;;;;0.10;0.10;;;13.00;99.90;;;;;;4995834;28;20445;-89
2021/03/21 12:23:32;;;;;;;0.52;0.52;;;13.50;99.90;;;;;;4990600;28;20019;-89
2021/03/21 12:26:18;;;;;;;0.40;0.40;;;13.10;99.90;;;;;;4991454;28;20030;-90
2021/03/21 12:28:51;;;;;;;0.52;0.52;;;13.00;99.90;;;;;;4984861;28;20096;-89
2021/03/21 12:31:28;;;;;;;0.20;0.20;;;13.20;99.90;;;;;;4981787;28;20069;-89
2021/03/21 12:33:54;;;;;;;0.32;0.32;;;13.40;99.90;;;;;;4987476;28;20117;-90
2021/03/21 12:36:27;;;;;;;0.10;0.10;;;13.10;99.90;;;;;;4989116;28;20133;-91
2021/03/21 12:39:14;;;;;;;0.93;0.70;;;13.30;99.90;;;;;;4986613;28;20031;-90
2021/03/21 12:41:44;;;;;;;0.55;0.50;;;13.40;99.90;;;;;;4982663;28;20060;-91
2021/03/21 12:44:22;;;;;;;0.35;0.35;;;12.70;99.90;;;;;;4988605;28;20150;-89
2021/03/21 12:47:16;;;;;;;2.17;0.98;;;12.50;99.90;;;;;;4989123;28;20038;-89
2021/03/21 12:49:50;;;;;;;0.90;0.90;;;12.80;99.90;;;;;;4986536;28;20057;-89
2021/03/21 12:52:44;;;;;;;0.20;0.20;;;12.50;99.90;;;;;;4988177;28;20041;-89
2021/03/21 12:55:13;;;;;;;0.77;0.73;;;12.20;99.90;;;;;;4984634;28;20038;-90
2021/03/21 12:57:39;;;;;;;0.30;0.30;;;12.20;99.90;;;;;;4986684;28;20414;-88
2021/03/21 13:00:08;;;;;;;0.63;0.47;;;12.50;99.90;;;;;;4993049;28;20029;-89
2021/03/21 13:02:36;;;;;;;0.63;0.63;;;12.60;99.90;;;;;;4994196;28;20026;-88
2021/03/21 13:05:20;;;;;;;2.00;0.60;;;12.60;99.90;;;;;;4991385;28;20112;-89
2021/03/21 13:07:46;;;;;;;1.05;0.52;;;12.70;99.90;;;;;;5002668;28;20156;-89
2021/03/21 13:10:12;;;;;;;0.47;0.47;;;12.40;99.90;;;;;;4994707;28;20116;-92
2021/03/21 13:12:39;;;;;;;0.88;0.88;;;12.30;99.90;;;;;;4997472;28;20050;-87
2021/03/21 13:15:08;;;;;;;0.20;0.20;;;12.30;99.90;;;;;;4999535;28;20128;-88
2021/03/21 13:17:36;;;;;;;0.60;0.60;;;12.40;99.90;;;;;;4999132;28;20661;-89
2021/03/21 13:20:03;;;;;;;0.47;0.47;;;12.20;99.90;;;;;;4986042;28;20091;-92
2021/03/21 13:22:28;;;;;;;0.43;0.43;;;12.00;99.90;;;;;;4985006;28;20030;-88
2021/03/21 13:24:54;;;;;;;0.32;0.32;;;12.10;99.90;;;;;;4985259;28;20034;-87
2021/03/21 13:27:22;;;;;;;2.00;1.77;;;12.00;99.90;;;;;;4987034;28;20076;-88
2021/03/21 13:29:48;;;;;;;2.83;1.05;;;12.10;99.90;;;;;;4981633;28;20030;-88
2021/03/21 13:32:14;;;;;;;0.20;0.20;;;12.20;99.90;;;;;;4986631;28;20092;-88
2021/03/21 13:34:41;;;;;;;0.35;0.35;;;12.00;99.90;;;;;;4992710;28;20038;-87
2021/03/21 13:37:07;;;;;;;0.45;0.45;;;12.10;99.90;;;;;;4984694;28;20035;-87
2021/03/21 13:39:33;;;;;;;0.40;0.40;;;12.10;99.90;;;;;;4986129;28;20027;-86
2021/03/21 13:41:59;;;;;;;0.80;0.80;;;12.60;99.90;;;;;;4987728;28;20135;-89
2021/03/21 13:44:25;;;;;;;0.65;0.65;;;12.50;99.90;;;;;;4985576;28;20402;-87
2021/03/21 13:46:50;;;;;;;1.70;1.03;;;12.30;99.90;;;;;;4988738;28;20026;-82
2021/03/21 13:49:18;;;;;;;0.55;0.55;;;12.30;99.90;;;;;;4985786;28;20069;-87